createdAt,value
2022-09-07T00:01:10.890Z,17.63
2022-09-07T00:03:38.422Z,16.58
2022-09-07T00:06:12.440Z,18.38
2022-09-07T00:08:43.531Z,18.52
2022-09-07T00:11:16.326Z,18.27
2022-09-07T00:13:47.313Z,16.27
2022-09-07T00:16:23.440Z,19.95
2022-09-07T00:18:54.374Z,14.77
2022-09-07T00:21:22.229Z,16.45
2022-09-07T00:23:50.455Z,16.10
2022-09-07T00:26:25.658Z,15.93
2022-09-07T00:29:02.009Z,16.80
2022-09-07T00:31:31.229Z,15.40
2022-09-07T00:34:02.173Z,16.52
2022-09-07T00:36:30.291Z,16.35
2022-09-07T00:38:58.452Z,15.30
2022-09-07T00:41:25.887Z,14.60
2022-09-07T00:43:57.399Z,14.88
2022-09-07T00:49:14.898Z,11.85
2022-09-07T00:52:01.956Z,12.75
2022-09-07T00:54:40.328Z,11.40
2022-09-07T00:57:08.552Z,15.18
2022-09-07T00:59:45.073Z,12.18
2022-09-07T01:02:17.113Z,12.90
2022-09-07T01:04:51.117Z,10.23
2022-09-07T01:07:19.430Z,10.45
2022-09-07T01:09:47.505Z,9.93
2022-09-07T01:12:14.996Z,10.52
2022-09-07T01:14:50.471Z,11.23
2022-09-07T01:17:51.596Z,8.88
2022-09-07T01:20:50.716Z,6.63
2022-09-07T01:23:59.035Z,9.07
2022-09-07T01:27:23.163Z,9.57
2022-09-07T01:30:09.402Z,6.30
2022-09-07T01:33:12.093Z,6.78
2022-09-07T01:36:03.185Z,7.93
2022-09-07T01:38:56.054Z,8.18
2022-09-07T01:41:44.780Z,7.65
2022-09-07T01:44:24.381Z,6.93
2022-09-07T01:47:09.215Z,6.88
2022-09-07T01:49:45.526Z,8.77
2022-09-07T01:52:36.155Z,6.15
2022-09-07T01:55:16.713Z,7.88
2022-09-07T01:58:13.621Z,7.60
2022-09-07T02:00:49.252Z,7.63
2022-09-07T02:03:29.158Z,7.07
2022-09-07T02:06:18.539Z,8.20
2022-09-07T02:09:01.035Z,7.85
2022-09-07T02:11:43.826Z,7.47
2022-09-07T02:14:30.217Z,8.32
2022-09-07T02:17:10.838Z,6.95
2022-09-07T02:19:50.051Z,10.10
2022-09-07T02:22:27.171Z,7.55
2022-09-07T02:25:00.862Z,6.93
2022-09-07T02:27:50.727Z,10.18
2022-09-07T02:30:18.321Z,7.68
2022-09-07T02:32:45.903Z,9.18
2022-09-07T02:35:13.542Z,7.65
2022-09-07T02:37:44.338Z,8.13
2022-09-07T02:40:12.975Z,7.63
2022-09-07T02:42:43.226Z,7.30
2022-09-07T02:45:13.676Z,6.38
2022-09-07T02:47:58.334Z,8.10
2022-09-07T02:50:58.642Z,7.88
2022-09-07T02:53:56.442Z,7.25
2022-09-07T02:57:00.869Z,7.10
2022-09-07T02:59:37.360Z,7.90
2022-09-07T03:02:19.733Z,6.72
2022-09-07T03:05:03.157Z,5.80
2022-09-07T03:07:41.007Z,6.32
2022-09-07T03:10:14.612Z,8.03
2022-09-07T03:12:49.532Z,7.70
2022-09-07T03:15:25.133Z,6.47
2022-09-07T03:17:53.711Z,5.93
2022-09-07T03:20:22.804Z,6.57
2022-09-07T03:22:52.663Z,6.63
2022-09-07T03:25:20.153Z,7.10
2022-09-07T03:27:47.582Z,7.43
2022-09-07T03:30:15.113Z,7.47
2022-09-07T03:32:42.549Z,7.78
2022-09-07T03:35:10.836Z,7.65
2022-09-07T03:37:38.780Z,9.77
2022-09-07T03:40:10.162Z,9.10
2022-09-07T03:42:38.276Z,8.35
2022-09-07T03:45:08.049Z,7.70
2022-09-07T03:47:39.609Z,5.93
2022-09-07T03:52:35.536Z,6.60
2022-09-07T03:55:04.217Z,8.23
2022-09-07T03:57:31.791Z,7.00
2022-09-07T03:59:59.224Z,7.55
2022-09-07T04:02:26.663Z,9.43
2022-09-07T04:04:54.160Z,7.45
2022-09-07T04:07:21.789Z,10.35
2022-09-07T04:09:51.235Z,7.93
2022-09-07T04:12:19.728Z,8.63
2022-09-07T04:14:47.159Z,7.25
2022-09-07T04:17:14.657Z,6.63
2022-09-07T04:19:42.209Z,8.43
2022-09-07T04:22:10.639Z,9.40
2022-09-07T04:24:38.215Z,7.82
2022-09-07T04:27:05.666Z,10.02
2022-09-07T04:29:33.094Z,7.68
2022-09-07T04:32:00.540Z,6.90
2022-09-07T04:34:28.148Z,7.80
2022-09-07T04:36:55.547Z,8.98
2022-09-07T04:39:23.032Z,10.73
2022-09-07T04:41:50.454Z,8.20
2022-09-07T04:44:17.887Z,8.82
2022-09-07T04:46:45.391Z,9.02
2022-09-07T04:49:13.978Z,8.45
2022-09-07T04:51:44.383Z,8.35
2022-09-07T04:54:12.202Z,8.43
2022-09-07T04:56:39.676Z,9.82
2022-09-07T04:59:07.195Z,10.55
2022-09-07T05:01:34.687Z,11.52
2022-09-07T05:04:04.376Z,12.50
2022-09-07T05:06:32.646Z,10.07
2022-09-07T05:09:00.553Z,12.82
2022-09-07T05:11:29.923Z,10.07
2022-09-07T05:14:03.223Z,10.60
2022-09-07T05:16:31.737Z,11.35
2022-09-07T05:19:02.487Z,9.50
2022-09-07T05:21:33.638Z,10.23
2022-09-07T05:24:02.493Z,12.98
2022-09-07T05:26:33.934Z,14.77
2022-09-07T05:31:54.843Z,10.07
2022-09-07T05:34:30.592Z,11.38
2022-09-07T05:36:58.846Z,11.35
2022-09-07T05:39:27.376Z,11.80
2022-09-07T05:42:40.529Z,11.63
2022-09-07T05:45:11.471Z,11.20
2022-09-07T05:47:39.312Z,11.02
2022-09-07T05:50:09.083Z,10.68
2022-09-07T05:52:36.687Z,10.73
2022-09-07T05:55:26.229Z,12.25
2022-09-07T05:57:51.974Z,12.27
2022-09-07T06:00:21.554Z,12.10
2022-09-07T06:02:49.127Z,13.13
2022-09-07T06:05:17.589Z,12.38
2022-09-07T06:07:48.253Z,14.48
2022-09-07T06:13:04.729Z,15.32
2022-09-07T06:15:33.798Z,14.30
2022-09-07T06:18:01.403Z,15.60
2022-09-07T06:20:28.931Z,14.88
2022-09-07T06:22:56.339Z,12.57
2022-09-07T06:25:23.814Z,13.48
2022-09-07T06:27:51.973Z,15.23
2022-09-07T06:30:20.929Z,14.13
2022-09-07T06:32:48.444Z,13.60
2022-09-07T06:35:16.125Z,12.75
2022-09-07T06:37:44.150Z,13.00
2022-09-07T06:40:12.193Z,13.52
2022-09-07T06:42:40.021Z,13.13
2022-09-07T06:45:11.225Z,12.30
2022-09-07T06:47:39.260Z,15.85
2022-09-07T06:50:07.584Z,15.50
2022-09-07T06:55:27.903Z,15.07
2022-09-07T06:57:55.313Z,14.82
2022-09-07T07:00:22.769Z,16.13
2022-09-07T07:02:50.267Z,16.15
2022-09-07T07:05:17.765Z,19.42
2022-09-07T07:07:45.278Z,18.08
2022-09-07T07:10:12.944Z,17.08
2022-09-07T07:15:08.842Z,19.02
2022-09-07T07:17:36.258Z,18.98
2022-09-07T07:20:03.965Z,22.17
2022-09-07T07:22:47.237Z,20.67
2022-09-07T07:25:15.263Z,18.67
2022-09-07T07:27:45.952Z,20.13
2022-09-07T07:30:16.702Z,21.95
2022-09-07T07:32:46.227Z,20.90
2022-09-07T07:35:14.495Z,21.17
2022-09-07T07:37:42.114Z,20.73
2022-09-07T07:42:42.821Z,21.52
2022-09-07T07:47:59.057Z,22.67
2022-09-07T07:50:31.571Z,21.10
2022-09-07T07:55:50.634Z,20.75
2022-09-07T07:58:18.575Z,21.40
2022-09-07T08:00:55.905Z,20.85
2022-09-07T08:03:25.366Z,22.33
2022-09-07T08:05:55.261Z,21.67
2022-09-07T08:08:23.724Z,20.58
2022-09-07T08:10:51.288Z,23.88
2022-09-07T08:13:19.220Z,23.15
2022-09-07T08:15:47.001Z,23.50
2022-09-07T08:18:17.150Z,23.58
2022-09-07T08:20:44.968Z,25.45
2022-09-07T08:23:12.489Z,24.65
2022-09-07T08:25:50.877Z,23.45
2022-09-07T08:28:19.829Z,25.17
2022-09-07T08:30:48.047Z,24.90
2022-09-07T08:33:15.704Z,23.85
2022-09-07T08:35:43.265Z,26.42
2022-09-07T08:38:10.846Z,26.52
2022-09-07T08:40:38.845Z,24.98
2022-09-07T08:43:26.967Z,27.98
2022-09-07T08:46:04.932Z,25.85
2022-09-07T08:48:35.822Z,26.67
2022-09-07T08:51:20.037Z,26.45
2022-09-07T08:53:50.539Z,27.60
2022-09-07T08:56:33.677Z,27.40
2022-09-07T08:59:18.775Z,25.98
2022-09-07T09:02:27.112Z,25.35
2022-09-07T09:05:16.098Z,23.63
2022-09-07T09:07:35.974Z,22.23
2022-09-07T09:10:27.338Z,23.60
2022-09-07T09:13:18.450Z,21.38
2022-09-07T09:16:02.444Z,23.17
2022-09-07T09:18:42.043Z,22.85
2022-09-07T09:21:16.585Z,21.77
2022-09-07T09:23:51.107Z,22.67
2022-09-07T09:26:25.393Z,22.23
2022-09-07T09:28:52.943Z,22.02
2022-09-07T09:31:26.478Z,19.15
2022-09-07T09:34:17.639Z,18.88
2022-09-07T09:36:49.725Z,17.60
2022-09-07T09:39:37.185Z,17.05
2022-09-07T09:42:11.649Z,15.63
2022-09-07T09:44:40.642Z,17.23
2022-09-07T09:47:30.368Z,14.07
2022-09-07T09:52:29.222Z,15.48
2022-09-07T09:53:06.723Z,16.15
2022-09-07T09:55:37.955Z,15.52
2022-09-07T10:01:30.975Z,17.33
2022-09-07T10:04:24.724Z,14.68
2022-09-07T10:07:09.001Z,14.05
2022-09-07T10:09:41.249Z,13.00
2022-09-07T10:12:24.781Z,11.02
2022-09-07T10:14:53.650Z,12.57
2022-09-07T10:17:35.692Z,11.77
2022-09-07T10:20:18.598Z,12.45
2022-09-07T10:22:58.682Z,12.90
2022-09-07T10:25:41.500Z,11.50
2022-09-07T10:28:10.026Z,11.80
2022-09-07T10:31:30.117Z,12.35
2022-09-07T10:34:29.472Z,11.20
2022-09-07T10:37:09.522Z,10.70
2022-09-07T10:40:00.302Z,10.18
2022-09-07T10:42:35.597Z,10.02
2022-09-07T10:45:24.688Z,10.95
2022-09-07T10:48:23.622Z,9.63
2022-09-07T10:51:05.130Z,9.43
2022-09-07T10:57:34.947Z,11.70
2022-09-07T11:00:16.433Z,11.00
2022-09-07T11:03:28.305Z,10.95
2022-09-07T11:06:09.061Z,11.20
2022-09-07T11:09:19.644Z,12.65
2022-09-07T11:12:05.595Z,9.80
2022-09-07T11:14:45.110Z,9.63
2022-09-07T11:17:50.616Z,10.27
2022-09-07T11:20:54.934Z,11.63
2022-09-07T11:23:42.074Z,11.40
2022-09-07T11:26:29.583Z,10.73
2022-09-07T11:32:26.330Z,10.35
2022-09-07T11:35:03.850Z,8.00
2022-09-07T11:37:47.047Z,7.50
2022-09-07T11:40:58.546Z,8.75
2022-09-07T11:43:35.100Z,7.65
2022-09-07T11:46:13.164Z,10.00
2022-09-07T11:48:52.415Z,7.32
2022-09-07T11:51:35.848Z,10.18
2022-09-07T11:54:39.230Z,6.40
2022-09-07T11:57:15.888Z,7.38
2022-09-07T12:00:01.665Z,6.88
2022-09-07T12:03:49.812Z,7.45
2022-09-07T12:06:32.095Z,7.80
2022-09-07T12:09:45.493Z,7.28
2022-09-07T12:12:43.575Z,6.53
2022-09-07T12:15:44.416Z,5.90
2022-09-07T12:19:01.149Z,5.97
2022-09-07T12:21:43.522Z,5.45
2022-09-07T12:24:35.560Z,5.78
2022-09-07T12:27:08.704Z,6.43
2022-09-07T12:29:36.822Z,7.32
2022-09-07T12:32:53.462Z,5.75
2022-09-07T12:34:55.703Z,6.55
2022-09-07T12:37:40.096Z,7.03
2022-09-07T12:40:36.138Z,6.22
2022-09-07T12:43:12.642Z,6.40
2022-09-07T12:45:48.420Z,6.25
2022-09-07T12:48:15.799Z,6.93
2022-09-07T12:51:09.565Z,7.50
2022-09-07T12:54:09.732Z,4.68
2022-09-07T12:57:28.970Z,6.72
2022-09-07T12:59:53.329Z,4.45
2022-09-07T13:03:49.456Z,5.07
2022-09-07T13:06:16.074Z,6.85
2022-09-07T13:09:17.282Z,6.78
2022-09-07T13:11:45.779Z,6.63
2022-09-07T13:14:13.411Z,5.47
2022-09-07T13:19:55.127Z,6.88
2022-09-07T13:22:35.213Z,6.15
2022-09-07T13:25:26.215Z,6.97
2022-09-07T13:28:23.603Z,6.40
2022-09-07T13:31:48.550Z,6.15
2022-09-07T13:34:34.114Z,6.30
2022-09-07T13:37:06.054Z,5.55
2022-09-07T13:39:45.733Z,6.13
2022-09-07T13:42:22.072Z,6.68
2022-09-07T13:45:00.262Z,4.78
2022-09-07T13:47:59.347Z,4.57
2022-09-07T13:50:43.368Z,5.78
2022-09-07T13:53:32.902Z,3.10
2022-09-07T13:56:24.325Z,4.90
2022-09-07T14:01:28.963Z,5.88
2022-09-07T14:04:07.533Z,4.43
2022-09-07T14:06:37.822Z,5.68
2022-09-07T14:09:14.782Z,6.40
2022-09-07T14:11:49.094Z,7.88
2022-09-07T14:14:26.463Z,4.70
2022-09-07T14:17:01.692Z,7.13
2022-09-07T14:19:45.287Z,7.07
2022-09-07T14:22:16.505Z,4.07
2022-09-07T14:24:51.395Z,5.13
2022-09-07T14:27:36.647Z,4.80
2022-09-07T14:30:33.296Z,4.20
2022-09-07T14:33:06.307Z,3.97
2022-09-07T14:35:38.352Z,4.10
2022-09-07T14:41:15.302Z,7.15
2022-09-07T14:43:56.533Z,4.82
2022-09-07T14:46:29.335Z,7.35
2022-09-07T14:49:01.549Z,4.45
2022-09-07T14:51:36.217Z,4.75
2022-09-07T14:54:08.037Z,4.13
2022-09-07T14:56:41.587Z,4.97
2022-09-07T14:59:44.444Z,6.07
2022-09-07T15:02:29.856Z,5.53
2022-09-07T15:05:25.938Z,4.28
2022-09-07T15:08:02.710Z,4.20
2022-09-07T15:10:41.344Z,8.13
2022-09-07T15:13:32.998Z,7.65
2022-09-07T15:16:05.525Z,5.10
2022-09-07T15:19:16.531Z,5.45
2022-09-07T15:21:45.438Z,6.40
2022-09-07T15:24:12.835Z,6.13
2022-09-07T15:27:02.915Z,8.85
2022-09-07T15:29:31.595Z,9.05
2022-09-07T15:32:05.114Z,6.10
2022-09-07T15:34:35.291Z,6.50
2022-09-07T15:38:00.305Z,4.50
2022-09-07T15:39:52.860Z,4.47
2022-09-07T15:45:08.956Z,6.47
2022-09-07T15:47:50.625Z,4.75
2022-09-07T15:50:19.494Z,9.77
2022-09-07T15:52:47.057Z,5.10
2022-09-07T15:55:17.096Z,4.60
2022-09-07T15:57:50.128Z,4.05
2022-09-07T16:00:20.768Z,4.13
2022-09-07T16:03:06.069Z,4.40
2022-09-07T16:05:34.487Z,3.50
2022-09-07T16:10:53.919Z,5.45
2022-09-07T16:13:24.020Z,4.28
2022-09-07T16:15:52.102Z,3.78
2022-09-07T16:18:19.599Z,6.05
2022-09-07T16:20:47.283Z,3.83
2022-09-07T16:23:17.064Z,5.03
2022-09-07T16:26:00.941Z,3.72
2022-09-07T16:28:29.433Z,4.20
2022-09-07T16:30:57.160Z,3.00
2022-09-07T16:33:34.379Z,5.30
2022-09-07T16:36:13.213Z,3.80
2022-09-07T16:38:44.442Z,3.83
2022-09-07T16:41:29.008Z,3.92
2022-09-07T16:43:57.354Z,4.88
2022-09-07T16:46:28.345Z,4.53
2022-09-07T16:48:55.826Z,5.10
2022-09-07T16:51:24.879Z,4.93
2022-09-07T16:53:55.813Z,4.32
2022-09-07T16:56:27.041Z,4.50
2022-09-07T16:58:58.909Z,6.95
2022-09-07T17:01:31.269Z,8.55
2022-09-07T17:04:00.330Z,8.27
2022-09-07T17:06:30.125Z,5.22
2022-09-07T17:09:01.277Z,6.55
2022-09-07T17:14:02.197Z,3.53
2022-09-07T17:16:33.617Z,6.40
2022-09-07T17:21:53.637Z,5.68
2022-09-07T17:24:21.463Z,5.90
2022-09-07T17:26:48.827Z,5.80
2022-09-07T17:29:16.696Z,6.43
2022-09-07T17:34:33.606Z,3.90
2022-09-07T17:37:01.374Z,5.97
2022-09-07T17:39:29.513Z,6.65
2022-09-07T17:41:57.065Z,4.95
2022-09-07T17:44:24.526Z,4.53
2022-09-07T17:46:51.947Z,4.90
2022-09-07T17:49:19.377Z,4.43
2022-09-07T17:51:46.864Z,5.47
2022-09-07T17:54:17.439Z,4.22
2022-09-07T17:56:46.253Z,7.35
2022-09-07T18:02:01.406Z,7.43
2022-09-07T18:04:28.984Z,6.05
2022-09-07T18:06:56.423Z,6.50
2022-09-07T18:09:24.032Z,6.43
2022-09-07T18:11:51.529Z,4.85
2022-09-07T18:14:19.396Z,5.45
2022-09-07T18:16:49.838Z,7.53
2022-09-07T18:19:18.893Z,6.27
2022-09-07T18:21:47.907Z,5.55
2022-09-07T18:24:22.863Z,5.75
2022-09-07T18:26:53.729Z,5.60
2022-09-07T18:29:29.944Z,5.97
2022-09-07T18:32:00.594Z,6.03
2022-09-07T18:34:31.902Z,6.03
2022-09-07T18:37:00.807Z,7.25
2022-09-07T18:39:28.559Z,7.90
2022-09-07T18:41:56.562Z,5.03
2022-09-07T18:47:22.339Z,7.32
2022-09-07T18:49:51.541Z,6.72
2022-09-07T18:55:09.833Z,6.95
2022-09-07T18:57:39.315Z,7.55
2022-09-07T19:00:09.563Z,7.18
2022-09-07T19:02:37.273Z,4.25
2022-09-07T19:07:52.979Z,5.70
2022-09-07T19:10:20.529Z,7.05
2022-09-07T19:12:47.915Z,10.18
2022-09-07T19:15:15.612Z,5.35
2022-09-07T19:17:43.029Z,4.55
2022-09-07T19:20:10.582Z,6.80
2022-09-07T19:22:38.932Z,8.02
2022-09-07T19:25:06.675Z,6.68
2022-09-07T19:27:34.614Z,6.05
2022-09-07T19:30:03.470Z,4.85
2022-09-07T19:32:30.833Z,5.00
2022-09-07T19:34:58.208Z,5.63
2022-09-07T19:37:26.151Z,4.85
2022-09-07T19:39:55.061Z,7.00
2022-09-07T19:42:24.407Z,6.68
2022-09-07T19:44:54.097Z,9.20
2022-09-07T19:47:21.911Z,7.57
2022-09-07T19:49:49.324Z,5.68
2022-09-07T19:52:16.672Z,6.47
2022-09-07T19:54:44.123Z,6.82
2022-09-07T19:57:12.221Z,6.82
2022-09-07T19:59:39.589Z,5.60
2022-09-07T20:02:07.123Z,6.80
2022-09-07T20:04:35.729Z,7.55
2022-09-07T20:07:03.971Z,12.15
2022-09-07T20:09:31.352Z,5.63
2022-09-07T20:12:01.719Z,5.05
2022-09-07T20:14:29.393Z,7.40
2022-09-07T20:16:57.116Z,6.38
2022-09-07T20:19:24.634Z,6.43
2022-09-07T20:21:55.632Z,7.22
2022-09-07T20:24:23.361Z,6.93
2022-09-07T20:26:51.257Z,4.50
2022-09-07T20:29:34.061Z,8.70
2022-09-07T20:32:01.857Z,6.40
2022-09-07T20:34:29.857Z,8.80
2022-09-07T20:36:57.407Z,7.38
2022-09-07T20:39:24.987Z,9.35
2022-09-07T20:41:52.652Z,8.75
2022-09-07T20:44:20.099Z,7.90
2022-09-07T20:46:47.589Z,10.48
2022-09-07T20:49:15.113Z,5.88
2022-09-07T20:51:42.513Z,8.73
2022-09-07T20:54:10.163Z,8.57
2022-09-07T20:56:37.690Z,7.22
2022-09-07T20:59:05.258Z,7.80
2022-09-07T21:01:34.909Z,8.77
2022-09-07T21:04:03.093Z,9.77
2022-09-07T21:06:32.777Z,7.45
2022-09-07T21:09:00.274Z,8.23
2022-09-07T21:11:34.345Z,7.45
2022-09-07T21:14:11.067Z,6.75
2022-09-07T21:16:39.212Z,9.20
2022-09-07T21:19:09.060Z,7.13
2022-09-07T21:21:42.654Z,9.98
2022-09-07T21:24:23.065Z,7.40
2022-09-07T21:26:51.796Z,5.78
2022-09-07T21:29:23.601Z,8.93
2022-09-07T21:31:53.597Z,7.63
2022-09-07T21:34:22.197Z,10.20
2022-09-07T21:36:49.898Z,9.20
2022-09-07T21:39:17.672Z,9.52
2022-09-07T21:41:45.518Z,9.55
2022-09-07T21:44:15.498Z,6.80
2022-09-07T21:46:44.145Z,8.77
2022-09-07T21:49:12.185Z,8.57
2022-09-07T21:51:39.821Z,7.82
2022-09-07T21:54:07.433Z,8.35
2022-09-07T21:56:34.850Z,8.23
2022-09-07T21:59:02.594Z,8.98
2022-09-07T22:01:31.689Z,10.38
2022-09-07T22:04:03.354Z,8.93
2022-09-07T22:09:01.386Z,8.10
2022-09-07T22:11:29.933Z,9.50
2022-09-07T22:14:02.655Z,8.48
2022-09-07T22:16:32.736Z,9.43
2022-09-07T22:19:00.735Z,8.77
2022-09-07T22:21:30.124Z,11.80
2022-09-07T22:24:02.132Z,8.48
2022-09-07T22:26:33.937Z,10.20
2022-09-07T22:29:01.475Z,10.70
2022-09-07T22:31:32.910Z,12.45
2022-09-07T22:36:36.108Z,9.63
2022-09-07T22:39:13.900Z,13.10
2022-09-07T22:41:43.294Z,10.40
2022-09-07T22:44:15.246Z,9.90
2022-09-07T22:46:44.908Z,7.60
2022-09-07T22:49:15.846Z,10.00
2022-09-07T22:51:44.423Z,12.20
2022-09-07T22:54:11.874Z,12.23
2022-09-07T22:56:39.891Z,8.80
2022-09-07T22:59:09.626Z,10.85
2022-09-07T23:01:37.604Z,11.32
2022-09-07T23:06:38.494Z,8.30
2022-09-07T23:09:10.509Z,11.55
2022-09-07T23:11:38.609Z,9.65
2022-09-07T23:14:13.104Z,9.00
2022-09-07T23:16:41.036Z,9.70
2022-09-07T23:19:12.650Z,10.05
2022-09-07T23:21:40.734Z,12.63
2022-09-07T23:24:13.412Z,10.98
2022-09-07T23:26:41.215Z,13.18
2022-09-07T23:29:12.914Z,9.40
2022-09-07T23:31:40.920Z,10.40
2022-09-07T23:34:09.527Z,9.10
2022-09-07T23:36:37.100Z,7.60
2022-09-07T23:39:05.009Z,9.48
2022-09-07T23:41:32.722Z,9.55
2022-09-07T23:44:00.457Z,12.55
2022-09-07T23:46:27.982Z,10.80
2022-09-07T23:48:55.440Z,11.55
2022-09-07T23:51:24.426Z,10.63
2022-09-07T23:53:53.301Z,10.75
2022-09-07T23:56:24.264Z,14.07
2022-09-07T23:58:52.187Z,14.23
